createdAt,value
2023-04-28T00:00:16.132Z,39.30
2023-04-28T00:02:46.095Z,39.10
2023-04-28T00:05:14.912Z,38.97
2023-04-28T00:07:43.582Z,43.77
2023-04-28T00:10:12.650Z,42.37
2023-04-28T00:12:41.251Z,39.43
2023-04-28T00:15:11.829Z,41.10
2023-04-28T00:17:40.436Z,43.83
2023-04-28T00:20:10.373Z,40.70
2023-04-28T00:22:39.248Z,42.30
2023-04-28T00:25:08.655Z,43.40
2023-04-28T00:27:37.758Z,44.80
2023-04-28T00:30:07.586Z,40.07
2023-04-28T00:32:37.592Z,42.77
2023-04-28T00:35:07.292Z,42.90
2023-04-28T00:37:38.356Z,45.60
2023-04-28T00:40:08.216Z,44.40
2023-04-28T00:42:36.912Z,45.27
2023-04-28T00:45:06.859Z,45.63
2023-04-28T00:47:38.023Z,41.03
2023-04-28T00:50:07.710Z,40.10
2023-04-28T00:52:36.480Z,40.27
2023-04-28T00:55:06.598Z,41.67
2023-04-28T00:57:35.497Z,43.47
2023-04-28T01:00:04.657Z,39.93
2023-04-28T01:02:33.369Z,34.67
2023-04-28T01:05:03.721Z,39.17
2023-04-28T01:07:32.445Z,37.17
2023-04-28T01:10:01.115Z,36.83
2023-04-28T01:12:30.864Z,33.97
2023-04-28T01:14:59.566Z,39.50
2023-04-28T01:17:28.198Z,40.83
2023-04-28T01:19:57.234Z,36.87
2023-04-28T01:22:27.322Z,40.40
2023-04-28T01:24:57.495Z,42.07
2023-04-28T01:27:26.171Z,40.87
2023-04-28T01:29:54.822Z,39.47
2023-04-28T01:32:23.460Z,35.53
2023-04-28T01:34:52.080Z,36.43
2023-04-28T01:37:20.689Z,36.87
2023-04-28T01:39:49.311Z,39.67
2023-04-28T01:42:20.351Z,40.60
2023-04-28T01:44:49.012Z,41.17
2023-04-28T01:47:17.652Z,40.00
2023-04-28T01:49:48.314Z,40.40
2023-04-28T01:52:16.948Z,36.83
2023-04-28T01:54:45.550Z,32.83
2023-04-28T01:57:15.507Z,34.70
2023-04-28T01:59:47.540Z,38.30
2023-04-28T02:02:16.223Z,40.40
2023-04-28T02:04:44.964Z,36.03
2023-04-28T02:07:13.585Z,40.27
2023-04-28T02:09:42.315Z,39.97
2023-04-28T02:12:10.929Z,38.60
2023-04-28T02:14:39.690Z,38.63
2023-04-28T02:17:09.775Z,41.47
2023-04-28T02:19:38.873Z,38.77
2023-04-28T02:22:07.442Z,37.57
2023-04-28T02:24:38.900Z,41.13
2023-04-28T02:27:07.446Z,39.40
2023-04-28T02:29:36.400Z,47.10
2023-04-28T02:32:05.053Z,41.33
2023-04-28T02:34:35.096Z,38.00
2023-04-28T02:37:04.977Z,39.07
2023-04-28T02:39:33.644Z,39.60
2023-04-28T02:42:03.106Z,43.53
2023-04-28T02:44:31.705Z,46.30
2023-04-28T02:47:00.833Z,49.43
2023-04-28T02:49:29.404Z,60.10
2023-04-28T02:51:59.520Z,56.37
2023-04-28T02:54:28.789Z,49.37
2023-04-28T02:56:57.802Z,53.50
2023-04-28T02:59:27.380Z,49.77
2023-04-28T03:01:56.062Z,41.70
2023-04-28T03:04:24.937Z,43.60
2023-04-28T03:06:53.678Z,43.23
2023-04-28T03:09:24.986Z,44.47
2023-04-28T03:11:53.792Z,42.43
2023-04-28T03:14:22.325Z,40.53
2023-04-28T03:16:51.071Z,42.03
2023-04-28T03:19:19.755Z,38.20
2023-04-28T03:21:48.794Z,40.83
2023-04-28T03:24:17.839Z,39.67
2023-04-28T03:26:47.977Z,42.83
2023-04-28T03:29:16.618Z,39.60
2023-04-28T03:31:45.220Z,39.13
2023-04-28T03:34:13.882Z,41.33
2023-04-28T03:36:42.602Z,42.90
2023-04-28T03:39:11.153Z,36.13
2023-04-28T03:41:40.202Z,40.30
2023-04-28T03:44:10.235Z,36.97
2023-04-28T03:46:38.842Z,36.63
2023-04-28T03:49:07.449Z,37.00
2023-04-28T03:51:36.471Z,36.60
2023-04-28T03:54:05.094Z,36.93
2023-04-28T03:56:33.714Z,36.90
2023-04-28T03:59:02.271Z,37.87
2023-04-28T04:01:32.274Z,37.53
2023-04-28T04:04:01.461Z,37.70
2023-04-28T04:06:30.263Z,37.20
2023-04-28T04:08:58.941Z,45.03
2023-04-28T04:11:27.523Z,40.53
2023-04-28T04:13:56.040Z,48.35
2023-04-28T04:16:24.800Z,35.93
2023-04-28T04:18:54.785Z,41.77
2023-04-28T04:21:23.362Z,40.60
2023-04-28T04:23:51.935Z,38.47
2023-04-28T04:26:21.298Z,32.10
2023-04-28T04:28:50.980Z,31.33
2023-04-28T04:31:22.927Z,21.85
2023-04-28T04:33:52.345Z,26.33
2023-04-28T04:36:24.088Z,40.23
2023-04-28T04:38:56.176Z,32.17
2023-04-28T04:41:27.003Z,35.33
2023-04-28T04:43:55.653Z,42.40
2023-04-28T04:46:24.735Z,31.17
2023-04-28T04:48:53.342Z,32.30
2023-04-28T04:51:23.350Z,44.07
2023-04-28T04:53:51.911Z,43.10
2023-04-28T04:56:20.574Z,40.57
2023-04-28T04:58:49.262Z,46.20
2023-04-28T05:01:17.807Z,32.38
2023-04-28T05:03:46.682Z,37.10
2023-04-28T05:06:15.618Z,40.50
2023-04-28T05:08:45.776Z,31.67
2023-04-28T05:11:14.492Z,33.53
2023-04-28T05:13:43.127Z,32.60
2023-04-28T05:16:11.931Z,29.67
2023-04-28T05:18:40.751Z,32.37
2023-04-28T05:21:11.896Z,30.70
2023-04-28T05:23:40.799Z,33.43
2023-04-28T05:26:11.012Z,34.07
2023-04-28T05:28:41.776Z,32.67
2023-04-28T05:31:10.617Z,33.77
2023-04-28T05:33:39.387Z,33.83
2023-04-28T05:36:08.837Z,34.07
2023-04-28T05:38:37.953Z,35.23
2023-04-28T05:41:07.271Z,39.33
2023-04-28T05:43:37.597Z,40.27
2023-04-28T05:46:14.879Z,40.30
2023-04-28T05:48:50.940Z,35.20
2023-04-28T05:51:20.299Z,32.57
2023-04-28T05:53:52.580Z,29.53
2023-04-28T05:56:22.234Z,30.63
2023-04-28T05:58:53.647Z,31.20
2023-04-28T06:01:23.885Z,27.20
2023-04-28T06:03:54.087Z,28.67
2023-04-28T06:06:22.957Z,29.90
2023-04-28T06:08:51.615Z,23.70
2023-04-28T06:11:22.880Z,25.90
2023-04-28T06:13:53.145Z,25.57
2023-04-28T06:16:23.896Z,28.47
2023-04-28T06:18:53.420Z,31.57
2023-04-28T06:21:22.509Z,27.67
2023-04-28T06:23:51.245Z,18.83
2023-04-28T06:26:19.896Z,28.00
2023-04-28T06:28:48.484Z,26.00
2023-04-28T06:31:18.526Z,25.83
2023-04-28T06:33:47.136Z,28.37
2023-04-28T06:36:18.198Z,27.33
2023-04-28T06:38:47.684Z,27.33
2023-04-28T06:41:16.290Z,25.43
2023-04-28T06:43:44.879Z,26.50
2023-04-28T06:46:13.505Z,19.63
2023-04-28T06:48:43.542Z,25.13
2023-04-28T06:51:12.408Z,19.80
2023-04-28T06:53:41.006Z,17.20
2023-04-28T06:56:11.255Z,22.53
2023-04-28T06:58:40.419Z,21.80
2023-04-28T07:01:08.980Z,20.00
2023-04-28T07:03:37.643Z,22.97
2023-04-28T07:06:08.188Z,19.17
2023-04-28T07:08:37.234Z,16.70
2023-04-28T07:11:06.474Z,16.83
2023-04-28T07:13:35.358Z,18.83
2023-04-28T07:16:04.281Z,17.30
2023-04-28T07:18:32.815Z,17.20
2023-04-28T07:21:02.794Z,18.10
2023-04-28T07:23:34.938Z,19.77
2023-04-28T07:26:03.669Z,16.40
2023-04-28T07:28:34.233Z,14.20
2023-04-28T07:31:03.285Z,13.77
2023-04-28T07:33:31.875Z,13.00
2023-04-28T07:36:00.548Z,11.93
2023-04-28T07:38:29.469Z,11.60
2023-04-28T07:40:59.782Z,12.43
2023-04-28T07:43:28.471Z,12.00
2023-04-28T07:45:57.262Z,11.77
2023-04-28T07:48:27.416Z,11.77
2023-04-28T07:50:55.976Z,9.87
2023-04-28T07:53:24.581Z,14.23
2023-04-28T07:55:53.223Z,14.07
2023-04-28T07:58:23.269Z,17.60
2023-04-28T08:00:51.875Z,19.17
2023-04-28T08:03:20.829Z,9.70
2023-04-28T08:05:50.735Z,12.83
2023-04-28T08:08:19.343Z,13.50
2023-04-28T08:10:48.368Z,14.43
2023-04-28T08:13:17.061Z,14.30
2023-04-28T08:15:48.682Z,15.37
2023-04-28T08:18:20.103Z,14.40
2023-04-28T08:20:48.734Z,11.23
2023-04-28T08:23:17.319Z,13.53
2023-04-28T08:25:46.041Z,14.03
2023-04-28T08:28:14.807Z,14.67
2023-04-28T08:30:43.410Z,17.73
2023-04-28T08:33:13.451Z,12.97
2023-04-28T08:35:42.312Z,10.67
2023-04-28T08:38:14.146Z,8.60
2023-04-28T08:40:43.085Z,7.03
2023-04-28T08:43:11.830Z,8.27
2023-04-28T08:45:45.041Z,7.27
2023-04-28T08:48:23.197Z,6.30
2023-04-28T08:50:53.605Z,33.93
2023-04-28T08:53:26.893Z,7.77
2023-04-28T08:55:58.029Z,8.90
2023-04-28T08:58:27.667Z,7.70
2023-04-28T09:00:56.666Z,6.80
2023-04-28T09:03:28.898Z,8.33
2023-04-28T09:05:57.983Z,8.23
2023-04-28T09:08:26.715Z,8.17
2023-04-28T09:11:09.632Z,7.53
2023-04-28T09:13:38.631Z,8.57
2023-04-28T09:16:08.229Z,8.70
2023-04-28T09:18:38.288Z,8.17
2023-04-28T09:21:08.566Z,8.87
2023-04-28T09:23:47.726Z,8.20
2023-04-28T09:26:17.005Z,9.13
2023-04-28T09:28:45.576Z,9.15
2023-04-28T09:31:31.844Z,8.20
2023-04-28T09:34:03.053Z,9.80
2023-04-28T09:36:32.928Z,7.93
2023-04-28T09:39:02.621Z,8.40
2023-04-28T09:41:38.815Z,9.25
2023-04-28T09:44:17.976Z,13.47
2023-04-28T09:46:47.919Z,11.00
2023-04-28T09:49:17.898Z,6.65
2023-04-28T09:51:46.518Z,5.93
2023-04-28T09:54:15.311Z,6.70
2023-04-28T09:56:48.421Z,4.72
2023-04-28T09:59:17.063Z,6.50
2023-04-28T10:01:46.570Z,12.13
2023-04-28T10:04:16.089Z,5.32
2023-04-28T10:06:46.854Z,9.38
2023-04-28T10:09:16.819Z,11.90
2023-04-28T10:11:46.329Z,9.50
2023-04-28T10:14:17.956Z,10.50
2023-04-28T10:16:56.539Z,11.65
2023-04-28T10:19:25.205Z,13.85
2023-04-28T10:22:08.399Z,8.80
2023-04-28T10:24:54.787Z,8.15
2023-04-28T10:27:31.136Z,8.38
2023-04-28T10:30:23.024Z,10.40
2023-04-28T10:33:36.010Z,9.27
2023-04-28T10:36:05.368Z,10.23
2023-04-28T10:38:38.300Z,9.93
2023-04-28T10:41:07.277Z,9.63
2023-04-28T10:43:39.587Z,9.10
2023-04-28T10:46:12.071Z,8.63
2023-04-28T10:49:08.527Z,9.70
2023-04-28T10:51:37.861Z,8.70
2023-04-28T10:54:12.064Z,7.67
2023-04-28T10:56:42.162Z,6.33
2023-04-28T10:59:29.098Z,5.70
2023-04-28T11:02:17.920Z,5.07
2023-04-28T11:05:19.337Z,7.27
2023-04-28T11:08:31.296Z,7.40
2023-04-28T11:11:24.526Z,7.50
2023-04-28T11:13:53.597Z,6.80
2023-04-28T11:16:29.059Z,12.53
2023-04-28T11:19:03.801Z,7.57
2023-04-28T11:21:33.987Z,6.37
2023-04-28T11:24:02.799Z,6.70
2023-04-28T11:26:33.524Z,9.03
2023-04-28T11:29:02.137Z,7.23
2023-04-28T11:31:32.514Z,5.63
2023-04-28T11:34:06.407Z,8.40
2023-04-28T11:36:36.936Z,5.10
2023-04-28T11:39:09.379Z,5.73
2023-04-28T11:41:40.984Z,5.40
2023-04-28T11:44:14.205Z,5.20
2023-04-28T11:46:56.335Z,6.00
2023-04-28T11:49:25.888Z,5.73
2023-04-28T11:51:55.036Z,6.43
2023-04-28T11:54:25.317Z,7.17
2023-04-28T11:56:56.698Z,7.73
2023-04-28T11:59:27.349Z,8.73
2023-04-28T12:01:59.424Z,5.70
2023-04-28T12:04:33.285Z,6.20
2023-04-28T12:07:03.672Z,7.82
2023-04-28T12:09:35.594Z,6.13
2023-04-28T12:12:07.238Z,5.13
2023-04-28T12:14:56.617Z,7.18
2023-04-28T12:17:26.765Z,6.43
2023-04-28T12:19:55.613Z,5.55
2023-04-28T12:22:24.899Z,6.97
2023-04-28T12:25:08.283Z,7.15
2023-04-28T12:27:40.839Z,9.93
2023-04-28T12:30:28.044Z,10.63
2023-04-28T12:32:57.830Z,7.38
2023-04-28T12:35:27.531Z,8.50
2023-04-28T12:37:57.153Z,8.15
2023-04-28T12:40:26.442Z,7.75
2023-04-28T12:42:56.948Z,9.45
2023-04-28T12:45:25.677Z,9.27
2023-04-28T12:47:54.372Z,8.82
2023-04-28T12:50:23.018Z,10.23
2023-04-28T12:52:51.640Z,8.18
2023-04-28T12:55:20.373Z,9.45
2023-04-28T12:57:49.035Z,8.70
2023-04-28T13:00:23.371Z,8.18
2023-04-28T13:02:52.450Z,8.57
2023-04-28T13:05:21.204Z,9.02
2023-04-28T13:07:51.015Z,9.48
2023-04-28T13:10:21.494Z,8.35
2023-04-28T13:12:50.134Z,9.18
2023-04-28T13:15:20.269Z,15.85
2023-04-28T13:17:50.076Z,14.43
2023-04-28T13:20:18.908Z,14.93
2023-04-28T13:22:47.584Z,13.07
2023-04-28T13:25:16.608Z,13.57
2023-04-28T13:27:45.208Z,14.93
2023-04-28T13:30:16.350Z,16.05
2023-04-28T13:32:46.984Z,17.42
2023-04-28T13:35:15.809Z,17.98
2023-04-28T13:37:46.236Z,22.00
2023-04-28T13:40:15.072Z,16.92
2023-04-28T13:42:43.926Z,18.35
2023-04-28T13:45:14.460Z,16.88
2023-04-28T13:47:45.651Z,15.30
2023-04-28T13:50:14.367Z,13.52
2023-04-28T13:52:43.098Z,11.93
2023-04-28T13:55:11.719Z,10.80
2023-04-28T13:57:40.346Z,13.18
2023-04-28T14:00:10.682Z,16.92
2023-04-28T14:02:40.055Z,16.55
2023-04-28T14:05:11.981Z,16.15
2023-04-28T14:07:40.593Z,14.45
2023-04-28T14:10:09.972Z,16.58
2023-04-28T14:12:38.881Z,16.38
2023-04-28T14:15:08.619Z,16.93
2023-04-28T14:17:38.369Z,16.02
2023-04-28T14:20:10.397Z,16.70
2023-04-28T14:22:40.653Z,11.95
2023-04-28T14:25:10.084Z,12.32
2023-04-28T14:27:38.741Z,11.35
2023-04-28T14:30:09.026Z,11.43
2023-04-28T14:32:39.974Z,13.38
2023-04-28T14:35:09.788Z,16.75
2023-04-28T14:37:39.894Z,21.50
2023-04-28T14:40:10.018Z,18.67
2023-04-28T14:42:38.673Z,17.88
2023-04-28T14:45:09.638Z,18.20
2023-04-28T14:47:39.535Z,16.83
2023-04-28T14:50:09.866Z,17.45
2023-04-28T14:52:40.617Z,17.05
2023-04-28T14:55:10.012Z,20.55
2023-04-28T14:57:38.606Z,21.30
2023-04-28T15:00:08.612Z,16.65
2023-04-28T15:02:37.993Z,18.42
2023-04-28T15:05:08.272Z,20.45
2023-04-28T15:07:37.257Z,19.88
2023-04-28T15:10:08.174Z,20.25
2023-04-28T15:12:37.277Z,19.55
2023-04-28T15:15:06.378Z,17.85
2023-04-28T15:17:35.835Z,17.55
2023-04-28T15:20:04.403Z,19.40
2023-04-28T15:22:32.996Z,21.13
2023-04-28T15:25:02.304Z,21.45
2023-04-28T15:27:32.376Z,23.33
2023-04-28T15:30:01.567Z,20.02
2023-04-28T15:32:31.924Z,20.75
2023-04-28T15:35:00.565Z,20.35
2023-04-28T15:37:44.802Z,18.55
2023-04-28T15:40:14.790Z,14.95
2023-04-28T15:42:49.336Z,14.25
2023-04-28T15:45:19.661Z,16.17
2023-04-28T15:47:50.608Z,14.13
2023-04-28T15:50:20.818Z,14.63
2023-04-28T15:52:51.376Z,13.63
2023-04-28T15:55:21.612Z,13.55
2023-04-28T15:57:52.676Z,11.67
2023-04-28T16:00:21.610Z,12.07
2023-04-28T16:02:50.687Z,12.43
2023-04-28T16:05:19.866Z,11.57
2023-04-28T16:07:48.784Z,12.00
2023-04-28T16:10:18.458Z,12.43
2023-04-28T16:12:51.834Z,10.15
2023-04-28T16:15:20.557Z,11.23
2023-04-28T16:17:49.408Z,10.00
2023-04-28T16:20:18.001Z,8.02
2023-04-28T16:22:46.676Z,8.20
2023-04-28T16:25:15.375Z,8.10
2023-04-28T16:27:44.045Z,8.83
2023-04-28T16:30:14.357Z,9.50
2023-04-28T16:32:43.051Z,8.68
2023-04-28T16:35:15.284Z,9.27
2023-04-28T16:37:44.704Z,8.60
2023-04-28T16:40:15.308Z,8.93
2023-04-28T16:42:45.364Z,12.20
2023-04-28T16:45:15.788Z,10.37
2023-04-28T16:47:44.712Z,8.30
2023-04-28T16:50:14.941Z,7.87
2023-04-28T16:52:43.538Z,9.95
2023-04-28T16:55:15.403Z,8.30
2023-04-28T16:57:43.919Z,8.17
2023-04-28T17:00:15.832Z,8.57
2023-04-28T17:02:44.538Z,8.33
2023-04-28T17:05:13.252Z,8.50
2023-04-28T17:07:41.912Z,10.20
2023-04-28T17:10:11.332Z,8.43
2023-04-28T17:12:40.992Z,8.10
2023-04-28T17:15:10.730Z,8.33
2023-04-28T17:17:41.040Z,9.30
2023-04-28T17:20:10.491Z,10.60
2023-04-28T17:22:39.165Z,17.33
2023-04-28T17:25:08.581Z,22.20
2023-04-28T17:27:37.155Z,24.67
2023-04-28T17:30:06.490Z,22.93
2023-04-28T17:32:36.767Z,16.23
2023-04-28T17:35:07.615Z,12.40
2023-04-28T17:37:37.315Z,9.87
2023-04-28T17:40:06.451Z,9.63
2023-04-28T17:42:35.195Z,7.83
2023-04-28T17:45:07.561Z,7.23
2023-04-28T17:47:36.586Z,9.53
2023-04-28T17:50:10.767Z,11.27
2023-04-28T17:52:39.933Z,12.87
2023-04-28T17:55:09.895Z,10.17
2023-04-28T17:57:38.578Z,10.10
2023-04-28T18:00:08.456Z,10.87
2023-04-28T18:02:37.285Z,13.07
2023-04-28T18:05:07.700Z,14.97
2023-04-28T18:07:38.229Z,15.77
2023-04-28T18:10:07.555Z,20.43
2023-04-28T18:12:36.185Z,17.20
2023-04-28T18:15:08.209Z,18.83
2023-04-28T18:17:36.976Z,16.40
2023-04-28T18:20:07.081Z,10.00
2023-04-28T18:22:39.483Z,13.53
2023-04-28T18:25:08.711Z,11.37
2023-04-28T18:27:37.259Z,12.80
2023-04-28T18:30:06.304Z,12.02
2023-04-28T18:32:37.697Z,11.67
2023-04-28T18:35:06.695Z,12.53
2023-04-28T18:37:37.269Z,10.13
2023-04-28T18:40:06.772Z,11.07
2023-04-28T18:42:35.378Z,9.03
2023-04-28T18:45:04.718Z,10.23
2023-04-28T18:47:33.787Z,10.20
2023-04-28T18:50:02.753Z,11.23
2023-04-28T18:52:31.445Z,13.07
2023-04-28T18:55:01.409Z,15.47
2023-04-28T18:57:30.082Z,21.30
2023-04-28T18:59:59.609Z,15.32
2023-04-28T19:02:28.523Z,19.53
2023-04-28T19:04:57.521Z,22.17
2023-04-28T19:07:26.540Z,18.87
2023-04-28T19:09:55.228Z,20.80
2023-04-28T19:12:25.504Z,20.47
2023-04-28T19:14:54.592Z,19.50
2023-04-28T19:17:23.540Z,17.80
2023-04-28T19:19:56.197Z,16.23
2023-04-28T19:22:32.462Z,18.30
2023-04-28T19:25:01.496Z,15.73
2023-04-28T19:27:33.378Z,15.87
2023-04-28T19:30:02.258Z,16.93
2023-04-28T19:32:31.180Z,17.13
2023-04-28T19:34:59.708Z,17.97
2023-04-28T19:37:28.363Z,18.50
2023-04-28T19:39:56.976Z,41.10
2023-04-28T19:42:25.658Z,20.90
2023-04-28T19:44:58.295Z,17.40
2023-04-28T19:47:27.303Z,18.80
2023-04-28T19:49:57.726Z,19.47
2023-04-28T19:52:26.253Z,31.88
2023-04-28T19:54:55.159Z,28.87
2023-04-28T19:57:27.334Z,20.73
2023-04-28T19:59:57.612Z,19.83
2023-04-28T20:02:26.855Z,16.70
2023-04-28T20:04:56.741Z,34.38
2023-04-28T20:07:25.267Z,33.70
2023-04-28T20:09:56.292Z,24.13
2023-04-28T20:12:25.126Z,23.63
2023-04-28T20:14:53.756Z,21.57
2023-04-28T20:17:24.082Z,23.03
2023-04-28T20:19:53.420Z,22.17
2023-04-28T20:22:22.331Z,21.30
2023-04-28T20:24:51.008Z,20.77
2023-04-28T20:27:21.037Z,24.73
2023-04-28T20:29:49.844Z,20.87
2023-04-28T20:32:18.870Z,23.93
2023-04-28T20:34:48.921Z,22.83
2023-04-28T20:37:17.518Z,22.07
2023-04-28T20:39:47.416Z,22.60
2023-04-28T20:42:16.715Z,21.30
2023-04-28T20:44:46.677Z,24.77
2023-04-28T20:47:15.515Z,21.43
2023-04-28T20:49:44.183Z,24.00
2023-04-28T20:52:14.226Z,25.47
2023-04-28T20:54:44.114Z,27.87
2023-04-28T20:57:12.720Z,26.40
2023-04-28T20:59:42.033Z,25.33
2023-04-28T21:02:16.879Z,31.30
2023-04-28T21:04:45.571Z,28.97
2023-04-28T21:07:17.351Z,31.83
2023-04-28T21:09:46.016Z,32.10
2023-04-28T21:12:14.780Z,32.10
2023-04-28T21:14:43.366Z,31.03
2023-04-28T21:17:11.882Z,33.30
2023-04-28T21:19:40.548Z,32.43
2023-04-28T21:22:09.241Z,32.07
2023-04-28T21:24:39.196Z,30.03
2023-04-28T21:27:07.761Z,30.17
2023-04-28T21:29:36.525Z,31.50
2023-04-28T21:32:05.186Z,31.87
2023-04-28T21:34:34.089Z,33.03
2023-04-28T21:37:02.796Z,34.07
2023-04-28T21:39:31.371Z,34.17
2023-04-28T21:42:01.947Z,37.23
2023-04-28T21:44:30.855Z,38.53
2023-04-28T21:46:59.423Z,36.17
2023-04-28T21:49:28.696Z,23.90
2023-04-28T21:51:57.397Z,37.93
2023-04-28T21:54:26.000Z,35.10
2023-04-28T21:56:55.035Z,35.03
2023-04-28T21:59:25.605Z,40.10
2023-04-28T22:01:54.750Z,32.20
2023-04-28T22:04:23.981Z,40.37
2023-04-28T22:06:52.982Z,40.57
2023-04-28T22:09:21.544Z,36.70
2023-04-28T22:11:50.061Z,39.20
2023-04-28T22:14:38.781Z,34.07
2023-04-28T22:17:08.779Z,31.13
2023-04-28T22:19:37.335Z,29.67
2023-04-28T22:22:05.862Z,32.27
2023-04-28T22:24:34.620Z,31.53
2023-04-28T22:27:03.406Z,32.53
2023-04-28T22:29:31.968Z,30.27
2023-04-28T22:32:00.514Z,30.40
2023-04-28T22:34:30.929Z,28.33
2023-04-28T22:36:59.562Z,30.90
2023-04-28T22:39:28.155Z,30.47
2023-04-28T22:41:57.037Z,28.03
2023-04-28T22:44:25.889Z,31.33
2023-04-28T22:46:54.533Z,30.07
2023-04-28T22:49:26.061Z,30.53
2023-04-28T22:51:56.162Z,29.17
2023-04-28T22:54:24.799Z,30.67
2023-04-28T22:56:53.554Z,32.67
2023-04-28T22:59:22.269Z,34.20
2023-04-28T23:01:51.061Z,31.70
2023-04-28T23:04:20.752Z,35.27
2023-04-28T23:06:49.628Z,37.93
2023-04-28T23:09:19.892Z,37.43
2023-04-28T23:11:48.620Z,40.00
2023-04-28T23:14:17.422Z,41.03
2023-04-28T23:16:45.991Z,41.53
2023-04-28T23:19:14.562Z,43.63
2023-04-28T23:21:43.079Z,45.97
2023-04-28T23:24:11.650Z,42.77
2023-04-28T23:26:41.856Z,39.33
2023-04-28T23:29:10.914Z,44.97
2023-04-28T23:31:40.151Z,45.93
2023-04-28T23:34:08.828Z,49.17
2023-04-28T23:36:38.005Z,47.10
2023-04-28T23:39:06.755Z,45.70
2023-04-28T23:41:35.310Z,41.87
2023-04-28T23:44:05.795Z,37.63
2023-04-28T23:46:34.511Z,40.37
2023-04-28T23:49:03.851Z,39.60
2023-04-28T23:51:33.540Z,39.07
2023-04-28T23:54:02.624Z,34.67
2023-04-28T23:56:31.561Z,33.60
2023-04-28T23:59:00.408Z,30.37
